createdAt,value
2018-11-03T00:01:53.127Z,40.00
2018-11-03T00:04:21.745Z,39.33
2018-11-03T00:06:50.369Z,39.77
2018-11-03T00:09:19.011Z,37.67
2018-11-03T00:11:47.625Z,34.77
2018-11-03T00:14:16.245Z,33.70
2018-11-03T00:16:44.765Z,41.37
2018-11-03T00:19:13.431Z,43.53
2018-11-03T00:21:42.058Z,38.87
2018-11-03T00:24:10.878Z,55.90
2018-11-03T00:26:39.465Z,38.70
2018-11-03T00:29:08.050Z,35.70
2018-11-03T00:31:36.594Z,35.87
2018-11-03T00:34:05.520Z,30.37
2018-11-03T00:36:34.155Z,31.60
2018-11-03T00:39:02.993Z,28.77
2018-11-03T00:41:31.541Z,31.43
2018-11-03T00:44:00.117Z,34.87
2018-11-03T00:46:28.652Z,34.17
2018-11-03T00:48:57.180Z,36.30
2018-11-03T00:51:25.786Z,37.00
2018-11-03T00:53:54.345Z,34.00
2018-11-03T00:56:23.126Z,36.80
2018-11-03T00:58:51.730Z,36.27
2018-11-03T01:01:20.269Z,43.13
2018-11-03T01:03:48.829Z,41.77
2018-11-03T01:06:17.415Z,38.00
2018-11-03T01:08:45.962Z,38.90
2018-11-03T01:11:14.713Z,36.70
2018-11-03T01:13:43.430Z,31.37
2018-11-03T01:16:11.970Z,32.53
2018-11-03T01:18:40.562Z,35.03
2018-11-03T01:21:09.141Z,37.40
2018-11-03T01:23:37.724Z,36.43
2018-11-03T01:26:06.475Z,34.53
2018-11-03T01:28:35.888Z,34.03
2018-11-03T01:31:04.501Z,36.17
2018-11-03T01:33:33.029Z,34.10
2018-11-03T01:36:01.654Z,33.50
2018-11-03T01:38:30.207Z,37.13
2018-11-03T01:40:58.732Z,40.03
2018-11-03T01:43:27.309Z,40.23
2018-11-03T01:45:55.869Z,37.70
2018-11-03T01:48:24.505Z,44.90
2018-11-03T01:50:53.086Z,48.57
2018-11-03T01:53:21.894Z,47.67
2018-11-03T01:55:50.634Z,50.60
2018-11-03T01:58:19.371Z,47.20
2018-11-03T02:00:48.105Z,42.73
2018-11-03T02:03:16.655Z,47.17
2018-11-03T02:05:45.275Z,48.03
2018-11-03T02:08:13.853Z,47.40
2018-11-03T02:10:42.437Z,46.97
2018-11-03T02:13:11.057Z,44.37
2018-11-03T02:15:39.821Z,42.57
2018-11-03T02:18:08.417Z,43.67
2018-11-03T02:20:37.001Z,45.17
2018-11-03T02:23:05.607Z,46.67
2018-11-03T02:25:34.217Z,44.87
2018-11-03T02:28:02.820Z,42.70
2018-11-03T02:30:31.567Z,43.43
2018-11-03T02:33:00.372Z,47.83
2018-11-03T02:35:29.508Z,46.17
2018-11-03T02:37:58.085Z,50.33
2018-11-03T02:40:26.673Z,46.83
2018-11-03T02:42:55.480Z,49.47
2018-11-03T02:45:24.097Z,46.87
2018-11-03T02:47:54.517Z,44.07
2018-11-03T02:50:23.122Z,51.07
2018-11-03T02:52:51.664Z,47.70
2018-11-03T02:55:20.213Z,53.60
2018-11-03T02:57:48.868Z,51.53
2018-11-03T03:00:17.652Z,49.60
2018-11-03T03:02:46.219Z,49.77
2018-11-03T03:05:14.805Z,49.47
2018-11-03T03:07:43.354Z,48.30
2018-11-03T03:10:13.106Z,52.93
2018-11-03T03:12:41.715Z,54.57
2018-11-03T03:15:11.710Z,48.67
2018-11-03T03:17:40.575Z,51.73
2018-11-03T03:20:10.990Z,50.50
2018-11-03T03:22:39.579Z,54.13
2018-11-03T03:25:09.453Z,54.50
2018-11-03T03:27:38.149Z,57.10
2018-11-03T03:30:07.391Z,58.77
2018-11-03T03:32:36.148Z,54.60
2018-11-03T03:35:04.787Z,56.53
2018-11-03T03:37:33.352Z,58.30
2018-11-03T03:40:01.916Z,60.57
2018-11-03T03:42:30.474Z,55.47
2018-11-03T03:44:59.082Z,57.33
2018-11-03T03:47:27.696Z,55.17
2018-11-03T03:49:56.422Z,56.47
2018-11-03T03:52:25.018Z,59.70
2018-11-03T03:54:53.687Z,57.23
2018-11-03T03:57:22.472Z,59.77
2018-11-03T03:59:51.084Z,59.33
2018-11-03T04:02:19.697Z,56.47
2018-11-03T04:04:48.292Z,55.97
2018-11-03T04:07:16.833Z,58.03
2018-11-03T04:09:45.364Z,59.40
2018-11-03T04:12:13.945Z,62.23
2018-11-03T04:14:42.494Z,60.97
2018-11-03T04:17:11.235Z,62.07
2018-11-03T04:19:40.128Z,61.50
2018-11-03T04:22:09.532Z,60.97
2018-11-03T04:24:38.098Z,59.67
2018-11-03T04:27:06.977Z,56.27
2018-11-03T04:29:36.932Z,52.53
2018-11-03T04:32:05.537Z,50.70
2018-11-03T04:34:34.560Z,52.97
2018-11-03T04:37:03.707Z,56.63
2018-11-03T04:39:32.330Z,58.73
2018-11-03T04:42:00.969Z,61.67
2018-11-03T04:44:29.707Z,58.27
2018-11-03T04:46:58.446Z,58.17
2018-11-03T04:49:27.122Z,58.57
2018-11-03T04:51:55.846Z,57.80
2018-11-03T04:54:24.468Z,58.70
2018-11-03T04:56:53.081Z,63.40
2018-11-03T04:59:21.654Z,61.90
2018-11-03T05:01:50.289Z,57.03
2018-11-03T05:04:18.918Z,56.97
2018-11-03T05:06:47.626Z,71.03
2018-11-03T05:09:16.323Z,61.47
2018-11-03T05:11:45.011Z,51.13
2018-11-03T05:14:13.802Z,55.00
2018-11-03T05:16:42.432Z,57.40
2018-11-03T05:19:11.169Z,57.47
2018-11-03T05:21:39.762Z,54.47
2018-11-03T05:24:08.505Z,54.57
2018-11-03T05:26:37.061Z,50.70
2018-11-03T05:29:05.933Z,51.57
2018-11-03T05:31:34.470Z,50.87
2018-11-03T05:34:03.109Z,52.33
2018-11-03T05:36:31.681Z,52.67
2018-11-03T05:39:00.233Z,54.87
2018-11-03T05:41:28.965Z,54.63
2018-11-03T05:43:57.499Z,63.87
2018-11-03T05:46:26.022Z,60.57
2018-11-03T05:48:54.820Z,56.23
2018-11-03T05:51:23.374Z,59.37
2018-11-03T05:53:52.254Z,55.97
2018-11-03T05:56:21.096Z,64.33
2018-11-03T05:58:49.668Z,52.87
2018-11-03T06:01:18.406Z,60.30
2018-11-03T06:03:47.018Z,53.03
2018-11-03T06:06:15.578Z,55.80
2018-11-03T06:08:44.169Z,54.17
2018-11-03T06:11:13.001Z,52.63
2018-11-03T06:13:41.538Z,57.23
2018-11-03T06:16:10.081Z,56.63
2018-11-03T06:18:38.653Z,61.03
2018-11-03T06:21:07.214Z,66.97
2018-11-03T06:23:35.885Z,66.97
2018-11-03T06:26:04.698Z,73.50
2018-11-03T06:28:33.561Z,59.90
2018-11-03T06:31:02.128Z,58.90
2018-11-03T06:33:31.005Z,57.87
2018-11-03T06:35:59.730Z,54.00
2018-11-03T06:38:29.154Z,50.00
2018-11-03T06:40:57.781Z,49.60
2018-11-03T06:43:26.417Z,84.63
2018-11-03T06:45:55.005Z,80.67
2018-11-03T06:48:23.700Z,184.03
2018-11-03T06:50:52.265Z,112.27
2018-11-03T06:53:21.203Z,94.27
2018-11-03T06:55:49.831Z,55.87
2018-11-03T06:58:18.377Z,55.23
2018-11-03T07:00:46.950Z,58.53
2018-11-03T07:03:15.613Z,56.73
2018-11-03T07:05:44.253Z,49.80
2018-11-03T07:08:12.829Z,54.07
2018-11-03T07:10:41.642Z,55.20
2018-11-03T07:13:10.268Z,53.50
2018-11-03T07:15:38.954Z,55.27
2018-11-03T07:18:07.535Z,53.30
2018-11-03T07:20:36.106Z,52.17
2018-11-03T07:23:05.022Z,54.43
2018-11-03T07:25:33.671Z,53.03
2018-11-03T07:28:02.426Z,64.40
2018-11-03T07:30:31.041Z,57.83
2018-11-03T07:32:59.809Z,53.83
2018-11-03T07:35:28.337Z,53.13
2018-11-03T07:37:56.887Z,55.60
2018-11-03T07:40:25.499Z,58.33
2018-11-03T07:42:54.057Z,60.10
2018-11-03T07:45:22.601Z,52.37
2018-11-03T07:47:51.215Z,55.63
2018-11-03T07:50:20.009Z,54.60
2018-11-03T07:52:48.811Z,57.00
2018-11-03T07:55:17.495Z,56.80
2018-11-03T07:57:47.288Z,58.23
2018-11-03T08:00:15.909Z,59.13
2018-11-03T08:02:44.665Z,56.30
2018-11-03T08:05:13.246Z,55.40
2018-11-03T08:07:41.885Z,54.00
2018-11-03T08:10:11.642Z,57.73
2018-11-03T08:12:40.300Z,56.60
2018-11-03T08:15:10.716Z,57.07
2018-11-03T08:17:39.986Z,61.83
2018-11-03T08:20:10.044Z,59.33
2018-11-03T08:22:38.701Z,55.43
2018-11-03T08:25:07.842Z,61.47
2018-11-03T08:27:36.794Z,49.43
2018-11-03T08:30:07.409Z,57.20
2018-11-03T08:32:36.245Z,49.60
2018-11-03T08:35:06.010Z,43.93
2018-11-03T08:37:34.671Z,48.10
2018-11-03T08:40:03.427Z,48.60
2018-11-03T08:42:32.096Z,51.67
2018-11-03T08:45:00.814Z,52.77
2018-11-03T08:47:29.616Z,44.47
2018-11-03T08:49:58.284Z,53.20
2018-11-03T08:52:26.887Z,44.47
2018-11-03T08:54:55.549Z,40.43
2018-11-03T08:57:24.402Z,41.57
2018-11-03T08:59:53.070Z,40.90
2018-11-03T09:02:21.778Z,50.87
2018-11-03T09:04:50.416Z,43.20
2018-11-03T09:07:19.131Z,42.30
2018-11-03T09:09:47.891Z,42.73
2018-11-03T09:12:17.590Z,45.13
2018-11-03T09:14:46.405Z,40.40
2018-11-03T09:17:15.429Z,35.70
2018-11-03T09:19:44.192Z,37.73
2018-11-03T09:22:12.848Z,40.70
2018-11-03T09:24:41.504Z,44.63
2018-11-03T09:27:10.173Z,38.50
2018-11-03T09:29:39.267Z,40.07
2018-11-03T09:32:08.019Z,38.27
2018-11-03T09:34:36.654Z,33.20
2018-11-03T09:37:06.205Z,56.70
2018-11-03T09:39:34.849Z,45.13
2018-11-03T09:42:03.765Z,37.47
2018-11-03T09:44:32.497Z,38.70
2018-11-03T09:47:01.182Z,34.70
2018-11-03T09:49:29.945Z,36.00
2018-11-03T09:51:58.567Z,37.00
2018-11-03T09:54:28.068Z,36.50
2018-11-03T09:56:56.633Z,31.20
2018-11-03T09:59:25.298Z,33.77
2018-11-03T10:01:54.191Z,33.23
2018-11-03T10:04:22.780Z,40.37
2018-11-03T10:06:51.459Z,31.50
2018-11-03T10:09:20.161Z,32.20
2018-11-03T10:11:48.694Z,42.83
2018-11-03T10:14:17.559Z,37.70
2018-11-03T10:16:46.142Z,33.97
2018-11-03T10:19:14.682Z,46.93
2018-11-03T10:21:43.380Z,52.23
2018-11-03T10:24:12.075Z,39.43
2018-11-03T10:26:40.636Z,53.50
2018-11-03T10:29:09.392Z,71.03
2018-11-03T10:31:38.025Z,40.23
2018-11-03T10:34:07.135Z,47.93
2018-11-03T10:36:35.733Z,67.20
2018-11-03T10:39:06.176Z,33.67
2018-11-03T10:41:34.788Z,31.50
2018-11-03T10:44:03.585Z,35.17
2018-11-03T10:46:32.388Z,36.10
2018-11-03T10:49:01.076Z,33.73
2018-11-03T10:51:29.634Z,33.30
2018-11-03T10:53:58.244Z,39.90
2018-11-03T10:56:26.857Z,33.03
2018-11-03T10:58:55.398Z,33.43
2018-11-03T11:01:29.397Z,55.03
2018-11-03T11:04:03.401Z,30.87
2018-11-03T11:06:37.401Z,37.63
2018-11-03T11:09:12.414Z,33.80
2018-11-03T11:11:46.348Z,30.37
2018-11-03T11:14:15.359Z,28.60
2018-11-03T11:16:44.091Z,29.27
2018-11-03T11:19:13.210Z,38.47
2018-11-03T11:21:41.761Z,36.13
2018-11-03T11:24:10.975Z,47.33
2018-11-03T11:26:39.609Z,30.17
2018-11-03T11:29:08.249Z,32.43
2018-11-03T11:31:36.957Z,28.43
2018-11-03T11:34:06.063Z,27.90
2018-11-03T11:36:34.746Z,31.30
2018-11-03T11:39:04.153Z,39.07
2018-11-03T11:41:32.730Z,26.60
2018-11-03T11:44:01.332Z,30.77
2018-11-03T11:46:29.950Z,25.67
2018-11-03T11:48:58.537Z,29.70
2018-11-03T11:51:27.129Z,24.40
2018-11-03T11:53:55.962Z,23.03
2018-11-03T11:56:24.689Z,20.23
2018-11-03T11:58:53.246Z,21.80
2018-11-03T12:01:21.823Z,33.33
2018-11-03T12:03:50.405Z,70.23
2018-11-03T12:06:18.965Z,41.03
2018-11-03T12:08:47.531Z,68.30
2018-11-03T12:11:16.173Z,27.37
2018-11-03T12:13:44.735Z,63.40
2018-11-03T12:16:13.582Z,103.33
2018-11-03T12:18:42.316Z,63.57
2018-11-03T12:21:10.873Z,269.57
2018-11-03T12:23:39.422Z,113.20
2018-11-03T12:26:08.366Z,69.93
2018-11-03T12:28:36.925Z,29.53
2018-11-03T12:31:05.981Z,36.10
2018-11-03T12:33:34.617Z,90.67
2018-11-03T12:36:03.229Z,32.20
2018-11-03T12:38:31.785Z,24.73
2018-11-03T12:41:00.460Z,94.10
2018-11-03T12:43:29.113Z,111.87
2018-11-03T12:45:57.734Z,24.17
2018-11-03T12:48:26.593Z,37.73
2018-11-03T12:50:55.291Z,25.03
2018-11-03T12:53:23.834Z,24.30
2018-11-03T12:55:52.490Z,27.23
2018-11-03T12:58:21.037Z,29.03
2018-11-03T13:00:49.578Z,25.07
2018-11-03T13:03:18.253Z,26.50
2018-11-03T13:05:47.038Z,29.53
2018-11-03T13:08:15.593Z,33.37
2018-11-03T13:10:44.169Z,38.60
2018-11-03T13:13:12.707Z,40.80
2018-11-03T13:15:41.265Z,29.60
2018-11-03T13:18:10.107Z,32.47
2018-11-03T13:20:38.685Z,33.03
2018-11-03T13:23:07.238Z,31.87
2018-11-03T13:25:35.825Z,34.30
2018-11-03T13:28:04.421Z,34.80
2018-11-03T13:30:32.978Z,36.17
2018-11-03T13:33:01.549Z,65.90
2018-11-03T13:35:30.127Z,33.20
2018-11-03T13:37:58.774Z,37.33
2018-11-03T13:40:27.355Z,37.00
2018-11-03T13:42:55.949Z,33.23
2018-11-03T13:45:24.494Z,52.77
2018-11-03T13:47:53.075Z,53.83
2018-11-03T13:50:21.810Z,49.93
2018-11-03T13:52:50.376Z,37.83
2018-11-03T13:55:19.022Z,36.80
2018-11-03T13:57:47.557Z,41.73
2018-11-03T14:00:17.465Z,32.07
2018-11-03T14:02:46.829Z,29.60
2018-11-03T14:05:15.757Z,32.43
2018-11-03T14:07:44.305Z,31.20
2018-11-03T14:10:14.532Z,48.83
2018-11-03T14:12:43.893Z,38.00
2018-11-03T14:15:13.963Z,38.67
2018-11-03T14:17:42.583Z,51.87
2018-11-03T14:20:12.753Z,41.90
2018-11-03T14:22:41.805Z,36.20
2018-11-03T14:25:12.126Z,31.50
2018-11-03T14:27:41.257Z,44.27
2018-11-03T14:30:11.274Z,41.03
2018-11-03T14:32:39.858Z,39.90
2018-11-03T14:35:09.205Z,54.80
2018-11-03T14:37:37.910Z,41.47
2018-11-03T14:40:08.997Z,43.07
2018-11-03T14:42:37.808Z,42.23
2018-11-03T14:45:07.503Z,51.57
2018-11-03T14:47:36.226Z,60.80
2018-11-03T14:50:05.507Z,39.67
2018-11-03T14:52:35.974Z,46.27
2018-11-03T14:55:04.686Z,48.97
2018-11-03T14:57:33.226Z,51.13
2018-11-03T15:00:02.222Z,64.37
2018-11-03T15:02:30.906Z,136.13
2018-11-03T15:04:59.544Z,139.73
2018-11-03T15:07:28.094Z,145.10
2018-11-03T15:09:56.689Z,102.07
2018-11-03T15:12:25.215Z,85.80
2018-11-03T15:14:53.794Z,125.47
2018-11-03T15:17:22.546Z,173.53
2018-11-03T15:19:51.157Z,81.83
2018-11-03T15:22:19.732Z,148.60
2018-11-03T15:24:48.501Z,98.53
2018-11-03T15:27:17.062Z,87.70
2018-11-03T15:29:45.705Z,88.30
2018-11-03T15:32:14.341Z,85.73
2018-11-03T15:34:43.151Z,84.97
2018-11-03T15:37:11.896Z,190.80
2018-11-03T15:39:40.502Z,80.83
2018-11-03T15:42:09.094Z,98.47
2018-11-03T16:02:38.067Z,110.00
2018-11-03T16:05:06.628Z,126.53
2018-11-03T16:07:35.150Z,91.50
2018-11-03T16:10:03.779Z,113.23
2018-11-03T16:12:32.478Z,125.70
2018-11-03T16:15:01.205Z,80.33
2018-11-03T16:17:29.777Z,147.50
2018-11-03T16:19:58.378Z,167.30
2018-11-03T16:22:26.956Z,121.20
2018-11-03T16:24:55.737Z,187.73
2018-11-03T16:35:06.201Z,133.67
2018-11-03T16:37:34.790Z,126.67
2018-11-03T16:40:03.463Z,81.20
2018-11-03T16:42:32.152Z,82.60
2018-11-03T16:45:00.785Z,112.27
2018-11-03T16:47:29.371Z,67.73
2018-11-03T16:49:57.950Z,86.77
2018-11-03T16:52:26.561Z,184.03
2018-11-03T16:54:55.270Z,115.13
2018-11-03T16:57:23.897Z,241.00
2018-11-03T16:59:52.545Z,186.63
2018-11-03T17:02:21.137Z,200.83
2018-11-03T17:04:49.724Z,138.23
2018-11-03T17:07:18.279Z,122.80
2018-11-03T17:09:46.820Z,98.83
2018-11-03T17:12:15.458Z,98.10
2018-11-03T17:14:44.032Z,95.50
2018-11-03T17:17:12.623Z,110.90
2018-11-03T17:19:41.230Z,123.77
2018-11-03T17:22:09.761Z,100.83
2018-11-03T17:24:38.302Z,112.47
2018-11-03T17:27:06.918Z,86.43
2018-11-03T17:29:35.483Z,89.47
2018-11-03T17:32:05.342Z,100.63
2018-11-03T17:34:34.097Z,89.03
2018-11-03T17:37:02.657Z,94.07
2018-11-03T17:39:31.304Z,95.97
2018-11-03T17:41:59.909Z,158.30
2018-11-03T17:44:28.578Z,165.53
2018-11-03T17:46:57.121Z,144.37
2018-11-03T17:49:25.782Z,253.97
2018-11-03T17:51:54.390Z,187.67
2018-11-03T17:54:22.917Z,148.80
2018-11-03T17:56:51.510Z,173.73
2018-11-03T17:59:20.046Z,95.30
2018-11-03T18:01:48.578Z,89.70
2018-11-03T18:04:17.174Z,71.93
2018-11-03T18:06:45.790Z,101.67
2018-11-03T18:09:14.360Z,108.93
2018-11-03T18:11:42.943Z,105.30
2018-11-03T18:14:11.541Z,116.53
2018-11-03T18:16:40.074Z,81.90
2018-11-03T18:19:08.658Z,100.33
2018-11-03T18:21:37.237Z,99.57
2018-11-03T18:24:05.997Z,199.50
2018-11-03T18:26:34.683Z,209.47
2018-11-03T18:29:03.385Z,215.37
2018-11-03T18:31:31.981Z,147.90
2018-11-03T18:34:00.566Z,141.90
2018-11-03T18:36:29.133Z,175.30
2018-11-03T18:38:57.705Z,199.70
2018-11-03T18:41:26.306Z,193.40
2018-11-03T18:43:54.865Z,150.63
2018-11-03T18:46:23.630Z,118.53
2018-11-03T18:48:52.398Z,99.50
2018-11-03T18:51:20.966Z,126.47
2018-11-03T18:53:49.534Z,108.53
2018-11-03T18:56:18.177Z,98.03
2018-11-03T18:58:46.717Z,86.20
2018-11-03T19:01:15.277Z,91.23
2018-11-03T19:03:43.892Z,80.07
2018-11-03T19:06:12.442Z,77.60
2018-11-03T19:08:40.988Z,71.80
2018-11-03T19:11:10.116Z,77.27
2018-11-03T19:13:38.969Z,81.63
2018-11-03T19:16:08.159Z,83.77
2018-11-03T19:18:36.928Z,79.33
2018-11-03T19:21:05.540Z,80.63
2018-11-03T19:23:34.139Z,77.63
2018-11-03T19:26:02.931Z,70.83
2018-11-03T19:28:31.465Z,79.23
2018-11-03T19:31:01.047Z,75.43
2018-11-03T19:33:32.787Z,68.43
2018-11-03T19:36:01.410Z,72.77
2018-11-03T19:38:30.103Z,65.07
2018-11-03T19:40:58.969Z,64.50
2018-11-03T19:43:27.674Z,69.30
2018-11-03T19:45:56.230Z,74.40
2018-11-03T19:48:24.923Z,72.57
2018-11-03T19:50:53.886Z,75.17
2018-11-03T19:53:22.522Z,89.87
2018-11-03T19:55:51.312Z,375.43
2018-11-03T19:58:19.955Z,120.77
2018-11-03T20:00:49.173Z,123.30
2018-11-03T20:03:17.883Z,175.90
2018-11-03T20:05:46.602Z,185.13
2018-11-03T20:08:15.194Z,249.43
2018-11-03T20:10:43.883Z,238.33
2018-11-03T20:13:12.448Z,260.70
2018-11-03T20:15:41.083Z,262.20
2018-11-03T20:18:10.008Z,175.03
2018-11-03T20:20:38.589Z,107.63
2018-11-03T20:23:07.171Z,266.37
2018-11-03T20:25:35.769Z,240.40
2018-11-03T20:28:04.374Z,174.47
2018-11-03T20:30:32.945Z,89.87
2018-11-03T20:33:01.636Z,148.70
2018-11-03T20:35:30.378Z,84.07
2018-11-03T20:37:59.041Z,76.80
2018-11-03T20:40:27.721Z,95.77
2018-11-03T20:42:56.342Z,98.27
2018-11-03T20:45:25.012Z,94.97
2018-11-03T20:47:53.599Z,110.90
2018-11-03T20:50:22.224Z,93.53
2018-11-03T20:52:50.865Z,90.50
2018-11-03T20:55:19.498Z,78.43
2018-11-03T20:57:48.083Z,73.80
2018-11-03T21:00:17.011Z,79.40
2018-11-03T21:10:28.525Z,72.63
2018-11-03T21:12:57.137Z,78.67
2018-11-03T21:15:25.726Z,76.10
2018-11-03T21:17:54.334Z,74.40
2018-11-03T21:20:22.991Z,70.30
2018-11-03T21:22:51.757Z,79.53
2018-11-03T21:25:20.443Z,74.10
2018-11-03T21:27:49.059Z,76.23
2018-11-03T21:30:17.817Z,89.90
2018-11-03T21:32:46.571Z,75.50
2018-11-03T21:35:15.284Z,70.80
2018-11-03T21:37:43.871Z,80.30
2018-11-03T21:40:12.442Z,74.40
2018-11-03T21:42:41.051Z,71.07
2018-11-03T21:45:09.975Z,71.23
2018-11-03T21:47:38.584Z,69.37
2018-11-03T21:57:49.067Z,80.00
2018-11-03T22:00:17.690Z,71.60
2018-11-03T22:02:48.790Z,74.67
2018-11-03T22:05:17.749Z,71.10
2018-11-03T22:07:46.391Z,75.93
2018-11-03T22:10:15.288Z,71.67
2018-11-03T22:12:44.198Z,77.50
2018-11-03T22:15:12.872Z,76.10
2018-11-03T22:17:42.465Z,71.90
2018-11-03T22:20:12.074Z,73.33
2018-11-03T22:22:41.227Z,74.27
2018-11-03T22:25:11.508Z,71.33
2018-11-03T22:27:40.145Z,72.43
2018-11-03T22:30:10.798Z,72.90
2018-11-03T22:32:40.114Z,75.53
2018-11-03T22:35:08.702Z,68.70
2018-11-03T22:37:37.414Z,71.87
2018-11-03T22:40:06.765Z,71.47
2018-11-03T22:42:35.530Z,70.87
2018-11-03T22:45:04.461Z,65.57
2018-11-03T22:47:33.047Z,67.60
2018-11-03T22:50:01.610Z,64.80
2018-11-03T22:52:30.233Z,67.40
2018-11-03T22:54:59.011Z,67.03
2018-11-03T22:57:27.594Z,68.67
2018-11-03T22:59:56.170Z,70.20
2018-11-03T23:02:24.712Z,73.40
2018-11-03T23:04:53.339Z,68.30
2018-11-03T23:07:21.943Z,67.10
2018-11-03T23:09:50.802Z,70.47
2018-11-03T23:12:19.412Z,73.23
2018-11-03T23:14:48.283Z,70.43
2018-11-03T23:17:16.821Z,66.13
2018-11-03T23:19:45.484Z,76.17
2018-11-03T23:22:14.099Z,68.50
2018-11-03T23:24:42.825Z,66.27
2018-11-03T23:27:11.390Z,65.50
2018-11-03T23:29:40.394Z,65.50
2018-11-03T23:32:09.115Z,71.27
2018-11-03T23:34:37.657Z,71.07
2018-11-03T23:37:06.749Z,65.60
2018-11-03T23:39:35.345Z,64.80
2018-11-03T23:42:03.974Z,69.17
2018-11-03T23:44:32.580Z,66.17
2018-11-03T23:47:01.123Z,70.00
2018-11-03T23:49:29.752Z,65.43
2018-11-03T23:51:58.372Z,64.60
2018-11-03T23:54:27.046Z,64.30
2018-11-03T23:56:55.736Z,63.70
2018-11-03T23:59:24.364Z,63.83
